sensor_id;sensor_type;location;lat;lon;timestamp;P1;durP1;ratioP1;P2;durP2;ratioP2
55655;SDS011;41530;52.382;5.270;2023-07-13T00:01:52;7.95;;;1.48;;
55655;SDS011;41530;52.382;5.270;2023-07-13T00:04:20;7.10;;;1.50;;
55655;SDS011;41530;52.382;5.270;2023-07-13T00:06:52;4.65;;;1.67;;
55655;SDS011;41530;52.382;5.270;2023-07-13T00:09:19;6.40;;;1.48;;
55655;SDS011;41530;52.382;5.270;2023-07-13T00:11:52;13.18;;;2.08;;
55655;SDS011;41530;52.382;5.270;2023-07-13T00:14:21;5.65;;;1.40;;
55655;SDS011;41530;52.382;5.270;2023-07-13T00:16:49;7.47;;;1.80;;
55655;SDS011;41530;52.382;5.270;2023-07-13T00:19:15;5.43;;;1.60;;
55655;SDS011;41530;52.382;5.270;2023-07-13T00:21:42;6.28;;;1.30;;
55655;SDS011;41530;52.382;5.270;2023-07-13T00:24:13;10.55;;;1.60;;
55655;SDS011;41530;52.382;5.270;2023-07-13T00:26:42;8.82;;;1.92;;
55655;SDS011;41530;52.382;5.270;2023-07-13T00:29:12;7.63;;;1.75;;
55655;SDS011;41530;52.382;5.270;2023-07-13T00:31:40;6.38;;;1.70;;
55655;SDS011;41530;52.382;5.270;2023-07-13T00:34:06;11.02;;;2.40;;
55655;SDS011;41530;52.382;5.270;2023-07-13T00:36:33;12.15;;;2.30;;
55655;SDS011;41530;52.382;5.270;2023-07-13T00:39:00;10.77;;;1.83;;
55655;SDS011;41530;52.382;5.270;2023-07-13T00:41:27;12.20;;;2.20;;
55655;SDS011;41530;52.382;5.270;2023-07-13T00:43:53;11.10;;;2.40;;
55655;SDS011;41530;52.382;5.270;2023-07-13T00:48:52;11.93;;;2.08;;
55655;SDS011;41530;52.382;5.270;2023-07-13T00:51:24;12.90;;;2.15;;
55655;SDS011;41530;52.382;5.270;2023-07-13T00:53:56;8.15;;;2.10;;
55655;SDS011;41530;52.382;5.270;2023-07-13T00:56:25;10.98;;;1.90;;
55655;SDS011;41530;52.382;5.270;2023-07-13T00:58:53;13.10;;;3.05;;
55655;SDS011;41530;52.382;5.270;2023-07-13T01:01:20;11.18;;;2.72;;
55655;SDS011;41530;52.382;5.270;2023-07-13T01:03:47;9.38;;;2.08;;
55655;SDS011;41530;52.382;5.270;2023-07-13T01:06:14;12.43;;;2.22;;
55655;SDS011;41530;52.382;5.270;2023-07-13T01:08:41;9.85;;;2.13;;
55655;SDS011;41530;52.382;5.270;2023-07-13T01:11:07;13.27;;;2.28;;
55655;SDS011;41530;52.382;5.270;2023-07-13T01:13:34;8.20;;;1.85;;
55655;SDS011;41530;52.382;5.270;2023-07-13T01:16:03;16.60;;;2.80;;
55655;SDS011;41530;52.382;5.270;2023-07-13T01:18:51;10.07;;;2.72;;
55655;SDS011;41530;52.382;5.270;2023-07-13T01:21:17;9.95;;;2.13;;
55655;SDS011;41530;52.382;5.270;2023-07-13T01:23:45;11.15;;;2.53;;
55655;SDS011;41530;52.382;5.270;2023-07-13T01:26:12;6.85;;;2.00;;
55655;SDS011;41530;52.382;5.270;2023-07-13T01:28:39;12.70;;;2.50;;
55655;SDS011;41530;52.382;5.270;2023-07-13T01:31:06;9.73;;;2.80;;
55655;SDS011;41530;52.382;5.270;2023-07-13T01:33:32;12.48;;;2.53;;
55655;SDS011;41530;52.382;5.270;2023-07-13T01:36:00;14.02;;;2.45;;
55655;SDS011;41530;52.382;5.270;2023-07-13T01:38:28;8.35;;;2.20;;
55655;SDS011;41530;52.382;5.270;2023-07-13T01:40:55;10.82;;;2.65;;
55655;SDS011;41530;52.382;5.270;2023-07-13T01:43:21;15.13;;;2.53;;
55655;SDS011;41530;52.382;5.270;2023-07-13T01:45:48;11.75;;;2.25;;
55655;SDS011;41530;52.382;5.270;2023-07-13T01:48:15;7.63;;;2.22;;
55655;SDS011;41530;52.382;5.270;2023-07-13T01:50:42;10.90;;;2.28;;
55655;SDS011;41530;52.382;5.270;2023-07-13T01:53:08;12.68;;;2.63;;
55655;SDS011;41530;52.382;5.270;2023-07-13T01:55:35;9.05;;;1.85;;
55655;SDS011;41530;52.382;5.270;2023-07-13T01:58:03;10.07;;;2.38;;
55655;SDS011;41530;52.382;5.270;2023-07-13T02:00:30;11.38;;;2.70;;
55655;SDS011;41530;52.382;5.270;2023-07-13T02:02:57;7.70;;;2.42;;
55655;SDS011;41530;52.382;5.270;2023-07-13T02:05:24;10.88;;;2.33;;
55655;SDS011;41530;52.382;5.270;2023-07-13T02:07:51;8.27;;;2.08;;
55655;SDS011;41530;52.382;5.270;2023-07-13T02:10:19;8.40;;;1.88;;
55655;SDS011;41530;52.382;5.270;2023-07-13T02:12:47;9.18;;;2.00;;
55655;SDS011;41530;52.382;5.270;2023-07-13T02:15:15;9.75;;;2.72;;
55655;SDS011;41530;52.382;5.270;2023-07-13T02:17:42;10.25;;;2.00;;
55655;SDS011;41530;52.382;5.270;2023-07-13T02:20:08;10.25;;;2.67;;
55655;SDS011;41530;52.382;5.270;2023-07-13T02:22:35;11.77;;;2.63;;
55655;SDS011;41530;52.382;5.270;2023-07-13T02:25:02;12.27;;;2.45;;
55655;SDS011;41530;52.382;5.270;2023-07-13T02:27:29;9.48;;;1.95;;
55655;SDS011;41530;52.382;5.270;2023-07-13T02:29:55;9.63;;;2.10;;
55655;SDS011;41530;52.382;5.270;2023-07-13T02:32:22;11.25;;;2.50;;
55655;SDS011;41530;52.382;5.270;2023-07-13T02:34:51;11.35;;;2.25;;
55655;SDS011;41530;52.382;5.270;2023-07-13T02:37:19;9.07;;;2.42;;
55655;SDS011;41530;52.382;5.270;2023-07-13T02:39:46;12.00;;;2.10;;
55655;SDS011;41530;52.382;5.270;2023-07-13T02:42:14;8.95;;;1.98;;
55655;SDS011;41530;52.382;5.270;2023-07-13T02:44:41;7.13;;;1.90;;
55655;SDS011;41530;52.382;5.270;2023-07-13T02:47:07;9.70;;;1.95;;
55655;SDS011;41530;52.382;5.270;2023-07-13T02:49:34;7.53;;;1.88;;
55655;SDS011;41530;52.382;5.270;2023-07-13T02:52:01;8.38;;;1.65;;
55655;SDS011;41530;52.382;5.270;2023-07-13T02:54:27;5.90;;;1.77;;
55655;SDS011;41530;52.382;5.270;2023-07-13T02:56:54;8.00;;;2.42;;
55655;SDS011;41530;52.382;5.270;2023-07-13T02:59:21;7.10;;;1.73;;
55655;SDS011;41530;52.382;5.270;2023-07-13T03:01:47;11.88;;;1.65;;
55655;SDS011;41530;52.382;5.270;2023-07-13T03:04:14;11.98;;;2.63;;
55655;SDS011;41530;52.382;5.270;2023-07-13T03:06:41;9.35;;;1.70;;
55655;SDS011;41530;52.382;5.270;2023-07-13T03:09:07;12.25;;;2.00;;
55655;SDS011;41530;52.382;5.270;2023-07-13T03:11:34;7.57;;;1.75;;
55655;SDS011;41530;52.382;5.270;2023-07-13T03:14:01;4.47;;;1.25;;
55655;SDS011;41530;52.382;5.270;2023-07-13T03:16:28;11.75;;;1.73;;
55655;SDS011;41530;52.382;5.270;2023-07-13T03:18:54;6.57;;;1.60;;
55655;SDS011;41530;52.382;5.270;2023-07-13T03:21:21;4.53;;;1.38;;
55655;SDS011;41530;52.382;5.270;2023-07-13T03:23:48;5.40;;;1.50;;
55655;SDS011;41530;52.382;5.270;2023-07-13T03:26:19;6.40;;;1.65;;
55655;SDS011;41530;52.382;5.270;2023-07-13T03:28:46;5.38;;;1.60;;
55655;SDS011;41530;52.382;5.270;2023-07-13T03:31:24;5.90;;;1.55;;
55655;SDS011;41530;52.382;5.270;2023-07-13T03:33:55;7.15;;;1.58;;
55655;SDS011;41530;52.382;5.270;2023-07-13T03:36:23;4.82;;;1.40;;
55655;SDS011;41530;52.382;5.270;2023-07-13T03:38:54;4.07;;;1.10;;
55655;SDS011;41530;52.382;5.270;2023-07-13T03:41:23;5.95;;;1.67;;
55655;SDS011;41530;52.382;5.270;2023-07-13T03:43:51;5.13;;;1.30;;
55655;SDS011;41530;52.382;5.270;2023-07-13T03:46:18;5.10;;;1.30;;
55655;SDS011;41530;52.382;5.270;2023-07-13T03:48:46;7.20;;;1.38;;
55655;SDS011;41530;52.382;5.270;2023-07-13T03:51:14;6.90;;;1.63;;
55655;SDS011;41530;52.382;5.270;2023-07-13T03:53:42;7.75;;;1.60;;
55655;SDS011;41530;52.382;5.270;2023-07-13T03:56:11;4.65;;;1.63;;
55655;SDS011;41530;52.382;5.270;2023-07-13T03:58:39;4.75;;;1.33;;
55655;SDS011;41530;52.382;5.270;2023-07-13T04:01:08;7.38;;;1.70;;
55655;SDS011;41530;52.382;5.270;2023-07-13T04:03:36;6.47;;;1.27;;
55655;SDS011;41530;52.382;5.270;2023-07-13T04:06:04;8.48;;;1.60;;
55655;SDS011;41530;52.382;5.270;2023-07-13T04:08:33;6.22;;;1.40;;
55655;SDS011;41530;52.382;5.270;2023-07-13T04:11:03;7.15;;;1.35;;
55655;SDS011;41530;52.382;5.270;2023-07-13T04:13:30;3.92;;;1.05;;
55655;SDS011;41530;52.382;5.270;2023-07-13T04:15:57;6.50;;;1.55;;
55655;SDS011;41530;52.382;5.270;2023-07-13T04:18:24;4.03;;;1.23;;
55655;SDS011;41530;52.382;5.270;2023-07-13T04:20:50;5.80;;;1.02;;
55655;SDS011;41530;52.382;5.270;2023-07-13T04:23:17;6.28;;;1.50;;
55655;SDS011;41530;52.382;5.270;2023-07-13T04:25:48;5.75;;;1.30;;
55655;SDS011;41530;52.382;5.270;2023-07-13T04:28:16;4.82;;;1.52;;
55655;SDS011;41530;52.382;5.270;2023-07-13T04:30:44;8.43;;;1.55;;
55655;SDS011;41530;52.382;5.270;2023-07-13T04:33:11;3.60;;;1.20;;
55655;SDS011;41530;52.382;5.270;2023-07-13T04:35:38;3.17;;;1.10;;
55655;SDS011;41530;52.382;5.270;2023-07-13T04:38:05;8.02;;;0.98;;
55655;SDS011;41530;52.382;5.270;2023-07-13T04:40:32;2.55;;;1.00;;
55655;SDS011;41530;52.382;5.270;2023-07-13T04:42:58;4.90;;;1.40;;
55655;SDS011;41530;52.382;5.270;2023-07-13T04:45:25;7.35;;;1.30;;
55655;SDS011;41530;52.382;5.270;2023-07-13T04:47:52;6.93;;;1.63;;
55655;SDS011;41530;52.382;5.270;2023-07-13T04:50:18;6.05;;;1.25;;
55655;SDS011;41530;52.382;5.270;2023-07-13T04:52:52;4.95;;;1.10;;
55655;SDS011;41530;52.382;5.270;2023-07-13T04:55:19;5.72;;;1.27;;
55655;SDS011;41530;52.382;5.270;2023-07-13T04:57:46;3.65;;;1.00;;
55655;SDS011;41530;52.382;5.270;2023-07-13T05:00:13;5.25;;;1.40;;
55655;SDS011;41530;52.382;5.270;2023-07-13T05:02:43;3.97;;;0.88;;
55655;SDS011;41530;52.382;5.270;2023-07-13T05:05:12;5.40;;;1.20;;
55655;SDS011;41530;52.382;5.270;2023-07-13T05:07:39;4.22;;;1.20;;
55655;SDS011;41530;52.382;5.270;2023-07-13T05:10:06;4.97;;;1.55;;
55655;SDS011;41530;52.382;5.270;2023-07-13T05:12:33;6.03;;;1.42;;
55655;SDS011;41530;52.382;5.270;2023-07-13T05:15:00;9.35;;;1.40;;
55655;SDS011;41530;52.382;5.270;2023-07-13T05:17:28;6.13;;;1.45;;
55655;SDS011;41530;52.382;5.270;2023-07-13T05:19:55;6.93;;;1.40;;
55655;SDS011;41530;52.382;5.270;2023-07-13T05:22:21;6.13;;;1.27;;
55655;SDS011;41530;52.382;5.270;2023-07-13T05:24:48;4.78;;;1.30;;
55655;SDS011;41530;52.382;5.270;2023-07-13T05:27:15;7.20;;;1.55;;
55655;SDS011;41530;52.382;5.270;2023-07-13T05:29:41;8.50;;;1.80;;
55655;SDS011;41530;52.382;5.270;2023-07-13T05:32:08;10.82;;;1.83;;
55655;SDS011;41530;52.382;5.270;2023-07-13T05:34:35;7.63;;;1.77;;
55655;SDS011;41530;52.382;5.270;2023-07-13T05:37:01;6.13;;;1.88;;
55655;SDS011;41530;52.382;5.270;2023-07-13T05:39:28;7.30;;;1.65;;
55655;SDS011;41530;52.382;5.270;2023-07-13T05:41:55;13.18;;;2.50;;
55655;SDS011;41530;52.382;5.270;2023-07-13T05:44:21;7.40;;;1.75;;
55655;SDS011;41530;52.382;5.270;2023-07-13T05:46:48;12.80;;;2.42;;
55655;SDS011;41530;52.382;5.270;2023-07-13T05:49:15;8.80;;;1.83;;
55655;SDS011;41530;52.382;5.270;2023-07-13T05:51:42;8.30;;;1.70;;
55655;SDS011;41530;52.382;5.270;2023-07-13T05:54:09;6.93;;;1.50;;
55655;SDS011;41530;52.382;5.270;2023-07-13T05:56:35;7.47;;;1.80;;
55655;SDS011;41530;52.382;5.270;2023-07-13T05:59:02;13.88;;;2.10;;
55655;SDS011;41530;52.382;5.270;2023-07-13T06:01:29;18.48;;;2.00;;
55655;SDS011;41530;52.382;5.270;2023-07-13T06:03:56;11.75;;;2.25;;
55655;SDS011;41530;52.382;5.270;2023-07-13T06:06:23;13.10;;;2.25;;
55655;SDS011;41530;52.382;5.270;2023-07-13T06:08:49;7.30;;;2.00;;
55655;SDS011;41530;52.382;5.270;2023-07-13T06:11:20;8.65;;;1.67;;
55655;SDS011;41530;52.382;5.270;2023-07-13T06:13:49;11.10;;;1.98;;
55655;SDS011;41530;52.382;5.270;2023-07-13T06:16:17;11.32;;;2.13;;
55655;SDS011;41530;52.382;5.270;2023-07-13T06:18:44;5.47;;;1.65;;
55655;SDS011;41530;52.382;5.270;2023-07-13T06:21:13;13.18;;;2.50;;
55655;SDS011;41530;52.382;5.270;2023-07-13T06:23:44;15.80;;;1.80;;
55655;SDS011;41530;52.382;5.270;2023-07-13T06:26:14;7.20;;;1.88;;
55655;SDS011;41530;52.382;5.270;2023-07-13T06:28:40;12.38;;;2.30;;
55655;SDS011;41530;52.382;5.270;2023-07-13T06:31:08;8.40;;;1.85;;
55655;SDS011;41530;52.382;5.270;2023-07-13T06:33:37;9.88;;;1.80;;
55655;SDS011;41530;52.382;5.270;2023-07-13T06:36:04;11.00;;;2.60;;
55655;SDS011;41530;52.382;5.270;2023-07-13T06:38:32;8.15;;;2.03;;
55655;SDS011;41530;52.382;5.270;2023-07-13T06:41:00;9.27;;;2.35;;
55655;SDS011;41530;52.382;5.270;2023-07-13T06:43:27;16.55;;;2.10;;
55655;SDS011;41530;52.382;5.270;2023-07-13T06:45:54;10.65;;;1.95;;
55655;SDS011;41530;52.382;5.270;2023-07-13T06:48:22;9.77;;;2.13;;
55655;SDS011;41530;52.382;5.270;2023-07-13T06:50:49;9.52;;;2.03;;
55655;SDS011;41530;52.382;5.270;2023-07-13T06:53:18;11.95;;;2.60;;
55655;SDS011;41530;52.382;5.270;2023-07-13T06:55:46;8.10;;;1.70;;
55655;SDS011;41530;52.382;5.270;2023-07-13T06:58:16;5.18;;;1.95;;
55655;SDS011;41530;52.382;5.270;2023-07-13T07:00:44;8.40;;;2.10;;
55655;SDS011;41530;52.382;5.270;2023-07-13T07:03:11;11.48;;;2.10;;
55655;SDS011;41530;52.382;5.270;2023-07-13T07:05:38;6.50;;;1.80;;
55655;SDS011;41530;52.382;5.270;2023-07-13T07:08:05;8.65;;;2.03;;
55655;SDS011;41530;52.382;5.270;2023-07-13T07:10:32;6.80;;;1.95;;
55655;SDS011;41530;52.382;5.270;2023-07-13T07:12:59;8.45;;;1.73;;
55655;SDS011;41530;52.382;5.270;2023-07-13T07:15:26;7.40;;;2.15;;
55655;SDS011;41530;52.382;5.270;2023-07-13T07:17:53;6.82;;;1.70;;
55655;SDS011;41530;52.382;5.270;2023-07-13T07:20:20;7.50;;;2.22;;
55655;SDS011;41530;52.382;5.270;2023-07-13T07:22:47;21.45;;;2.78;;
55655;SDS011;41530;52.382;5.270;2023-07-13T07:25:14;10.80;;;2.42;;
55655;SDS011;41530;52.382;5.270;2023-07-13T07:27:41;6.65;;;1.98;;
55655;SDS011;41530;52.382;5.270;2023-07-13T07:30:11;9.77;;;2.00;;
55655;SDS011;41530;52.382;5.270;2023-07-13T07:32:41;6.57;;;2.00;;
55655;SDS011;41530;52.382;5.270;2023-07-13T07:35:23;9.98;;;2.10;;
55655;SDS011;41530;52.382;5.270;2023-07-13T07:37:50;6.53;;;1.85;;
55655;SDS011;41530;52.382;5.270;2023-07-13T07:40:17;6.50;;;1.60;;
55655;SDS011;41530;52.382;5.270;2023-07-13T07:42:47;7.40;;;1.60;;
55655;SDS011;41530;52.382;5.270;2023-07-13T07:45:14;6.53;;;2.08;;
55655;SDS011;41530;52.382;5.270;2023-07-13T07:47:41;4.65;;;1.38;;
55655;SDS011;41530;52.382;5.270;2023-07-13T07:50:08;8.52;;;1.52;;
55655;SDS011;41530;52.382;5.270;2023-07-13T07:52:39;9.13;;;1.95;;
55655;SDS011;41530;52.382;5.270;2023-07-13T07:55:06;4.32;;;1.42;;
55655;SDS011;41530;52.382;5.270;2023-07-13T07:57:36;4.95;;;1.25;;
55655;SDS011;41530;52.382;5.270;2023-07-13T08:00:06;3.65;;;1.55;;
55655;SDS011;41530;52.382;5.270;2023-07-13T08:02:36;4.35;;;1.60;;
55655;SDS011;41530;52.382;5.270;2023-07-13T08:05:06;3.22;;;1.30;;
55655;SDS011;41530;52.382;5.270;2023-07-13T08:07:37;4.22;;;1.90;;
55655;SDS011;41530;52.382;5.270;2023-07-13T08:10:05;3.83;;;1.42;;
55655;SDS011;41530;52.382;5.270;2023-07-13T08:12:36;2.78;;;1.27;;
55655;SDS011;41530;52.382;5.270;2023-07-13T08:15:09;5.70;;;1.20;;
55655;SDS011;41530;52.382;5.270;2023-07-13T08:17:37;8.98;;;1.85;;
55655;SDS011;41530;52.382;5.270;2023-07-13T08:20:04;4.93;;;1.95;;
55655;SDS011;41530;52.382;5.270;2023-07-13T08:22:31;5.05;;;1.65;;
55655;SDS011;41530;52.382;5.270;2023-07-13T08:24:59;6.50;;;1.70;;
55655;SDS011;41530;52.382;5.270;2023-07-13T08:27:26;4.80;;;1.80;;
55655;SDS011;41530;52.382;5.270;2023-07-13T08:29:54;7.18;;;1.40;;
55655;SDS011;41530;52.382;5.270;2023-07-13T08:32:22;6.65;;;1.55;;
55655;SDS011;41530;52.382;5.270;2023-07-13T08:34:49;8.25;;;1.70;;
55655;SDS011;41530;52.382;5.270;2023-07-13T08:37:17;5.85;;;1.77;;
55655;SDS011;41530;52.382;5.270;2023-07-13T08:39:44;5.70;;;1.50;;
55655;SDS011;41530;52.382;5.270;2023-07-13T08:42:16;4.75;;;1.60;;
55655;SDS011;41530;52.382;5.270;2023-07-13T08:45:04;6.25;;;1.90;;
55655;SDS011;41530;52.382;5.270;2023-07-13T08:47:38;5.00;;;1.70;;
55655;SDS011;41530;52.382;5.270;2023-07-13T08:50:14;4.28;;;1.30;;
55655;SDS011;41530;52.382;5.270;2023-07-13T08:52:44;5.03;;;1.80;;
55655;SDS011;41530;52.382;5.270;2023-07-13T08:55:13;3.45;;;1.42;;
55655;SDS011;41530;52.382;5.270;2023-07-13T08:57:44;6.43;;;1.88;;
55655;SDS011;41530;52.382;5.270;2023-07-13T09:00:14;4.82;;;1.42;;
55655;SDS011;41530;52.382;5.270;2023-07-13T09:02:43;7.05;;;1.52;;
55655;SDS011;41530;52.382;5.270;2023-07-13T09:05:29;7.72;;;1.20;;
55655;SDS011;41530;52.382;5.270;2023-07-13T09:13:36;5.22;;;1.75;;
55655;SDS011;41530;52.382;5.270;2023-07-13T09:16:09;3.72;;;1.33;;
55655;SDS011;41530;52.382;5.270;2023-07-13T09:18:38;3.55;;;1.15;;
55655;SDS011;41530;52.382;5.270;2023-07-13T09:21:22;3.53;;;1.40;;
55655;SDS011;41530;52.382;5.270;2023-07-13T09:23:53;2.78;;;1.27;;
55655;SDS011;41530;52.382;5.270;2023-07-13T09:26:25;3.20;;;1.40;;
55655;SDS011;41530;52.382;5.270;2023-07-13T09:29:03;3.10;;;1.23;;
55655;SDS011;41530;52.382;5.270;2023-07-13T09:31:41;3.35;;;1.30;;
55655;SDS011;41530;52.382;5.270;2023-07-13T09:34:12;5.15;;;1.23;;
55655;SDS011;41530;52.382;5.270;2023-07-13T09:36:39;3.08;;;1.38;;
55655;SDS011;41530;52.382;5.270;2023-07-13T09:47:18;5.05;;;1.15;;
55655;SDS011;41530;52.382;5.270;2023-07-13T09:50:03;4.22;;;1.30;;
55655;SDS011;41530;52.382;5.270;2023-07-13T09:53:09;4.50;;;1.20;;
55655;SDS011;41530;52.382;5.270;2023-07-13T09:55:37;7.10;;;1.25;;
55655;SDS011;41530;52.382;5.270;2023-07-13T10:00:43;4.53;;;1.55;;
55655;SDS011;41530;52.382;5.270;2023-07-13T10:03:20;7.45;;;1.55;;
55655;SDS011;41530;52.382;5.270;2023-07-13T10:05:50;5.10;;;1.40;;
55655;SDS011;41530;52.382;5.270;2023-07-13T10:08:23;2.40;;;1.27;;
55655;SDS011;41530;52.382;5.270;2023-07-13T10:10:57;6.68;;;1.45;;
55655;SDS011;41530;52.382;5.270;2023-07-13T10:15:59;4.50;;;1.20;;
55655;SDS011;41530;52.382;5.270;2023-07-13T10:18:26;5.30;;;1.05;;
55655;SDS011;41530;52.382;5.270;2023-07-13T10:21:08;2.72;;;1.38;;
55655;SDS011;41530;52.382;5.270;2023-07-13T10:24:00;2.65;;;1.30;;
55655;SDS011;41530;52.382;5.270;2023-07-13T10:26:33;2.85;;;1.05;;
55655;SDS011;41530;52.382;5.270;2023-07-13T10:29:02;3.53;;;1.00;;
55655;SDS011;41530;52.382;5.270;2023-07-13T10:31:34;4.75;;;1.13;;
55655;SDS011;41530;52.382;5.270;2023-07-13T10:34:03;3.60;;;1.23;;
55655;SDS011;41530;52.382;5.270;2023-07-13T10:36:38;3.47;;;1.20;;
55655;SDS011;41530;52.382;5.270;2023-07-13T10:39:07;1.65;;;1.00;;
55655;SDS011;41530;52.382;5.270;2023-07-13T10:41:41;4.07;;;1.20;;
55655;SDS011;41530;52.382;5.270;2023-07-13T10:44:31;3.17;;;1.13;;
55655;SDS011;41530;52.382;5.270;2023-07-13T10:47:01;3.95;;;1.30;;
55655;SDS011;41530;52.382;5.270;2023-07-13T10:49:34;2.10;;;1.13;;
55655;SDS011;41530;52.382;5.270;2023-07-13T10:52:03;1.95;;;0.95;;
55655;SDS011;41530;52.382;5.270;2023-07-13T10:54:31;2.65;;;0.98;;
55655;SDS011;41530;52.382;5.270;2023-07-13T10:57:08;6.75;;;1.20;;
55655;SDS011;41530;52.382;5.270;2023-07-13T10:59:43;2.35;;;1.10;;
55655;SDS011;41530;52.382;5.270;2023-07-13T11:02:24;2.03;;;1.17;;
55655;SDS011;41530;52.382;5.270;2023-07-13T11:04:54;1.15;;;0.85;;
55655;SDS011;41530;52.382;5.270;2023-07-13T11:07:27;4.00;;;1.17;;
55655;SDS011;41530;52.382;5.270;2023-07-13T11:09:57;1.55;;;1.00;;
55655;SDS011;41530;52.382;5.270;2023-07-13T11:12:26;1.90;;;1.05;;
55655;SDS011;41530;52.382;5.270;2023-07-13T11:15:13;2.75;;;1.17;;
55655;SDS011;41530;52.382;5.270;2023-07-13T11:17:47;2.22;;;1.02;;
55655;SDS011;41530;52.382;5.270;2023-07-13T11:27:51;1.05;;;0.93;;
55655;SDS011;41530;52.382;5.270;2023-07-13T11:30:31;2.58;;;1.05;;
55655;SDS011;41530;52.382;5.270;2023-07-13T11:33:11;2.13;;;1.10;;
55655;SDS011;41530;52.382;5.270;2023-07-13T11:40:54;2.47;;;1.00;;
55655;SDS011;41530;52.382;5.270;2023-07-13T11:43:22;2.83;;;1.08;;
55655;SDS011;41530;52.382;5.270;2023-07-13T11:45:50;1.85;;;0.80;;
55655;SDS011;41530;52.382;5.270;2023-07-13T11:48:28;1.77;;;0.88;;
55655;SDS011;41530;52.382;5.270;2023-07-13T11:51:02;3.25;;;1.15;;
55655;SDS011;41530;52.382;5.270;2023-07-13T11:53:38;1.27;;;0.88;;
55655;SDS011;41530;52.382;5.270;2023-07-13T11:56:07;1.42;;;0.85;;
55655;SDS011;41530;52.382;5.270;2023-07-13T11:58:34;2.08;;;1.00;;
55655;SDS011;41530;52.382;5.270;2023-07-13T12:01:01;1.55;;;1.00;;
55655;SDS011;41530;52.382;5.270;2023-07-13T12:03:32;1.77;;;1.13;;
55655;SDS011;41530;52.382;5.270;2023-07-13T12:06:05;1.63;;;1.10;;
55655;SDS011;41530;52.382;5.270;2023-07-13T12:08:49;2.35;;;1.33;;
55655;SDS011;41530;52.382;5.270;2023-07-13T12:11:16;1.65;;;0.80;;
55655;SDS011;41530;52.382;5.270;2023-07-13T12:13:44;3.15;;;1.20;;
55655;SDS011;41530;52.382;5.270;2023-07-13T12:16:28;1.75;;;0.90;;
55655;SDS011;41530;52.382;5.270;2023-07-13T12:19:00;1.58;;;1.05;;
55655;SDS011;41530;52.382;5.270;2023-07-13T12:21:31;1.30;;;1.10;;
55655;SDS011;41530;52.382;5.270;2023-07-13T12:24:00;1.33;;;0.90;;
55655;SDS011;41530;52.382;5.270;2023-07-13T12:26:30;1.67;;;1.00;;
55655;SDS011;41530;52.382;5.270;2023-07-13T12:28:59;1.92;;;1.15;;
55655;SDS011;41530;52.382;5.270;2023-07-13T12:34:10;2.03;;;1.30;;
55655;SDS011;41530;52.382;5.270;2023-07-13T12:36:47;1.17;;;0.88;;
55655;SDS011;41530;52.382;5.270;2023-07-13T12:39:20;2.05;;;1.15;;
55655;SDS011;41530;52.382;5.270;2023-07-13T12:41:48;1.15;;;1.00;;
55655;SDS011;41530;52.382;5.270;2023-07-13T12:44:18;1.83;;;1.13;;
55655;SDS011;41530;52.382;5.270;2023-07-13T12:46:53;1.38;;;0.80;;
55655;SDS011;41530;52.382;5.270;2023-07-13T12:49:27;1.35;;;0.80;;
55655;SDS011;41530;52.382;5.270;2023-07-13T12:51:57;1.15;;;0.75;;
55655;SDS011;41530;52.382;5.270;2023-07-13T12:54:25;2.80;;;1.00;;
55655;SDS011;41530;52.382;5.270;2023-07-13T12:56:53;1.40;;;0.90;;
55655;SDS011;41530;52.382;5.270;2023-07-13T12:59:24;1.67;;;0.95;;
55655;SDS011;41530;52.382;5.270;2023-07-13T13:01:55;0.88;;;0.75;;
55655;SDS011;41530;52.382;5.270;2023-07-13T13:04:22;1.00;;;0.90;;
55655;SDS011;41530;52.382;5.270;2023-07-13T13:06:58;1.35;;;0.90;;
55655;SDS011;41530;52.382;5.270;2023-07-13T13:09:27;1.25;;;0.73;;
55655;SDS011;41530;52.382;5.270;2023-07-13T13:11:54;2.55;;;0.93;;
55655;SDS011;41530;52.382;5.270;2023-07-13T13:14:21;1.10;;;0.95;;
55655;SDS011;41530;52.382;5.270;2023-07-13T13:16:48;2.22;;;0.98;;
55655;SDS011;41530;52.382;5.270;2023-07-13T13:19:17;2.10;;;0.95;;
55655;SDS011;41530;52.382;5.270;2023-07-13T13:21:48;1.73;;;1.08;;
55655;SDS011;41530;52.382;5.270;2023-07-13T13:24:17;1.13;;;0.80;;
55655;SDS011;41530;52.382;5.270;2023-07-13T13:26:46;1.35;;;0.80;;
55655;SDS011;41530;52.382;5.270;2023-07-13T13:29:22;1.35;;;0.80;;
55655;SDS011;41530;52.382;5.270;2023-07-13T13:31:51;1.73;;;0.70;;
55655;SDS011;41530;52.382;5.270;2023-07-13T13:34:19;1.83;;;1.08;;
55655;SDS011;41530;52.382;5.270;2023-07-13T13:36:50;1.42;;;1.02;;
55655;SDS011;41530;52.382;5.270;2023-07-13T13:41:54;1.90;;;0.90;;
55655;SDS011;41530;52.382;5.270;2023-07-13T13:44:21;2.13;;;0.90;;
55655;SDS011;41530;52.382;5.270;2023-07-13T13:46:48;1.70;;;0.90;;
55655;SDS011;41530;52.382;5.270;2023-07-13T13:49:21;1.58;;;0.90;;
55655;SDS011;41530;52.382;5.270;2023-07-13T13:51:50;1.25;;;0.82;;
55655;SDS011;41530;52.382;5.270;2023-07-13T13:54:18;0.77;;;0.75;;
55655;SDS011;41530;52.382;5.270;2023-07-13T13:56:49;3.42;;;1.08;;
55655;SDS011;41530;52.382;5.270;2023-07-13T13:59:17;5.05;;;1.50;;
55655;SDS011;41530;52.382;5.270;2023-07-13T14:01:45;1.58;;;0.82;;
55655;SDS011;41530;52.382;5.270;2023-07-13T14:04:17;1.60;;;0.95;;
55655;SDS011;41530;52.382;5.270;2023-07-13T14:06:45;1.65;;;0.82;;
55655;SDS011;41530;52.382;5.270;2023-07-13T14:09:13;1.02;;;0.80;;
55655;SDS011;41530;52.382;5.270;2023-07-13T14:11:42;4.22;;;1.00;;
55655;SDS011;41530;52.382;5.270;2023-07-13T14:14:14;1.30;;;0.82;;
55655;SDS011;41530;52.382;5.270;2023-07-13T14:16:44;1.63;;;1.17;;
55655;SDS011;41530;52.382;5.270;2023-07-13T14:19:15;1.75;;;0.90;;
55655;SDS011;41530;52.382;5.270;2023-07-13T14:21:42;1.08;;;0.82;;
55655;SDS011;41530;52.382;5.270;2023-07-13T14:24:08;1.10;;;0.90;;
55655;SDS011;41530;52.382;5.270;2023-07-13T14:26:36;1.25;;;0.73;;
55655;SDS011;41530;52.382;5.270;2023-07-13T14:29:11;1.48;;;0.90;;
55655;SDS011;41530;52.382;5.270;2023-07-13T14:31:47;1.63;;;0.80;;
55655;SDS011;41530;52.382;5.270;2023-07-13T14:34:14;1.63;;;0.98;;
55655;SDS011;41530;52.382;5.270;2023-07-13T14:36:42;1.27;;;0.93;;
55655;SDS011;41530;52.382;5.270;2023-07-13T14:39:20;1.23;;;0.70;;
55655;SDS011;41530;52.382;5.270;2023-07-13T14:41:52;2.28;;;0.90;;
55655;SDS011;41530;52.382;5.270;2023-07-13T14:44:22;1.13;;;1.00;;
55655;SDS011;41530;52.382;5.270;2023-07-13T14:46:52;2.42;;;0.70;;
55655;SDS011;41530;52.382;5.270;2023-07-13T14:49:32;2.35;;;1.30;;
55655;SDS011;41530;52.382;5.270;2023-07-13T14:52:05;1.40;;;0.90;;
55655;SDS011;41530;52.382;5.270;2023-07-13T14:54:38;1.10;;;1.00;;
55655;SDS011;41530;52.382;5.270;2023-07-13T14:57:10;1.20;;;0.98;;
55655;SDS011;41530;52.382;5.270;2023-07-13T14:59:45;1.25;;;0.95;;
55655;SDS011;41530;52.382;5.270;2023-07-13T15:04:42;1.85;;;1.13;;
55655;SDS011;41530;52.382;5.270;2023-07-13T15:07:10;0.77;;;0.70;;
55655;SDS011;41530;52.382;5.270;2023-07-13T15:09:38;1.13;;;0.70;;
55655;SDS011;41530;52.382;5.270;2023-07-13T15:12:05;1.50;;;0.80;;
55655;SDS011;41530;52.382;5.270;2023-07-13T15:14:32;1.27;;;0.90;;
55655;SDS011;41530;52.382;5.270;2023-07-13T15:16:58;2.53;;;0.75;;
55655;SDS011;41530;52.382;5.270;2023-07-13T15:19:26;1.35;;;0.88;;
55655;SDS011;41530;52.382;5.270;2023-07-13T15:21:56;1.50;;;0.70;;
55655;SDS011;41530;52.382;5.270;2023-07-13T15:24:26;1.50;;;0.93;;
55655;SDS011;41530;52.382;5.270;2023-07-13T15:26:53;1.30;;;0.80;;
55655;SDS011;41530;52.382;5.270;2023-07-13T15:29:20;1.00;;;0.90;;
55655;SDS011;41530;52.382;5.270;2023-07-13T15:31:46;2.58;;;0.98;;
55655;SDS011;41530;52.382;5.270;2023-07-13T15:34:15;1.52;;;0.80;;
55655;SDS011;41530;52.382;5.270;2023-07-13T15:36:45;1.75;;;0.82;;
55655;SDS011;41530;52.382;5.270;2023-07-13T15:39:15;1.45;;;0.82;;
55655;SDS011;41530;52.382;5.270;2023-07-13T15:41:43;1.02;;;0.90;;